sensor_id;sensor_type;location;lat;lon;timestamp;temperature;humidity
16643;DHT22;8435;52.184;5.406;2022-09-17T00:01:47;14.50;97.40
16643;DHT22;8435;52.184;5.406;2022-09-17T00:04:15;14.50;97.40
16643;DHT22;8435;52.184;5.406;2022-09-17T00:06:43;14.50;97.40
16643;DHT22;8435;52.184;5.406;2022-09-17T00:09:10;14.50;97.30
16643;DHT22;8435;52.184;5.406;2022-09-17T00:11:39;14.50;97.30
16643;DHT22;8435;52.184;5.406;2022-09-17T00:14:11;14.50;97.70
16643;DHT22;8435;52.184;5.406;2022-09-17T00:16:40;14.50;97.60
16643;DHT22;8435;52.184;5.406;2022-09-17T00:19:12;14.50;97.60
16643;DHT22;8435;52.184;5.406;2022-09-17T00:21:40;14.50;97.50
16643;DHT22;8435;52.184;5.406;2022-09-17T00:24:08;14.50;97.50
16643;DHT22;8435;52.184;5.406;2022-09-17T00:26:35;14.50;97.50
16643;DHT22;8435;52.184;5.406;2022-09-17T00:29:04;14.50;97.60
16643;DHT22;8435;52.184;5.406;2022-09-17T00:31:33;14.50;97.60
16643;DHT22;8435;52.184;5.406;2022-09-17T00:34:04;14.40;97.50
16643;DHT22;8435;52.184;5.406;2022-09-17T00:36:34;14.40;97.50
16643;DHT22;8435;52.184;5.406;2022-09-17T00:39:11;14.40;97.40
16643;DHT22;8435;52.184;5.406;2022-09-17T00:41:41;14.40;97.40
16643;DHT22;8435;52.184;5.406;2022-09-17T00:44:41;14.40;97.40
16643;DHT22;8435;52.184;5.406;2022-09-17T00:47:16;14.30;97.50
16643;DHT22;8435;52.184;5.406;2022-09-17T00:49:45;14.30;97.40
16643;DHT22;8435;52.184;5.406;2022-09-17T00:52:15;14.30;97.40
16643;DHT22;8435;52.184;5.406;2022-09-17T00:54:48;14.30;97.40
16643;DHT22;8435;52.184;5.406;2022-09-17T00:57:16;14.30;97.40
16643;DHT22;8435;52.184;5.406;2022-09-17T00:59:43;14.30;97.40
16643;DHT22;8435;52.184;5.406;2022-09-17T01:02:13;14.30;97.30
16643;DHT22;8435;52.184;5.406;2022-09-17T01:04:43;14.30;97.30
16643;DHT22;8435;52.184;5.406;2022-09-17T01:07:16;14.20;97.30
16643;DHT22;8435;52.184;5.406;2022-09-17T01:09:51;14.30;97.30
16643;DHT22;8435;52.184;5.406;2022-09-17T01:12:48;14.30;97.30
16643;DHT22;8435;52.184;5.406;2022-09-17T01:15:25;14.30;97.30
16643;DHT22;8435;52.184;5.406;2022-09-17T01:18:05;14.30;97.20
16643;DHT22;8435;52.184;5.406;2022-09-17T01:23:57;14.30;97.30
16643;DHT22;8435;52.184;5.406;2022-09-17T01:26:48;14.20;97.20
16643;DHT22;8435;52.184;5.406;2022-09-17T01:29:33;14.20;96.90
16643;DHT22;8435;52.184;5.406;2022-09-17T01:32:27;14.20;96.90
16643;DHT22;8435;52.184;5.406;2022-09-17T01:35:02;14.20;96.70
16643;DHT22;8435;52.184;5.406;2022-09-17T01:37:33;14.20;96.70
16643;DHT22;8435;52.184;5.406;2022-09-17T01:40:07;14.20;96.60
16643;DHT22;8435;52.184;5.406;2022-09-17T01:42:45;14.20;96.50
16643;DHT22;8435;52.184;5.406;2022-09-17T01:45:26;14.20;96.40
16643;DHT22;8435;52.184;5.406;2022-09-17T01:47:57;14.20;96.30
16643;DHT22;8435;52.184;5.406;2022-09-17T01:50:35;14.20;96.30
16643;DHT22;8435;52.184;5.406;2022-09-17T01:53:05;14.20;96.10
16643;DHT22;8435;52.184;5.406;2022-09-17T01:55:45;14.20;96.30
16643;DHT22;8435;52.184;5.406;2022-09-17T01:58:21;14.20;96.10
16643;DHT22;8435;52.184;5.406;2022-09-17T02:01:12;14.30;96.00
16643;DHT22;8435;52.184;5.406;2022-09-17T02:06:46;14.30;95.90
16643;DHT22;8435;52.184;5.406;2022-09-17T02:07:06;14.30;95.80
16643;DHT22;8435;52.184;5.406;2022-09-17T02:09:44;14.30;95.70
16643;DHT22;8435;52.184;5.406;2022-09-17T02:12:16;14.30;95.70
16643;DHT22;8435;52.184;5.406;2022-09-17T02:14:51;14.30;95.70
16643;DHT22;8435;52.184;5.406;2022-09-17T02:17:23;14.30;95.60
16643;DHT22;8435;52.184;5.406;2022-09-17T02:19:53;14.30;95.60
16643;DHT22;8435;52.184;5.406;2022-09-17T02:22:38;14.30;95.60
16643;DHT22;8435;52.184;5.406;2022-09-17T02:25:13;14.30;95.50
16643;DHT22;8435;52.184;5.406;2022-09-17T02:27:48;14.30;95.60
16643;DHT22;8435;52.184;5.406;2022-09-17T02:30:21;14.30;95.60
16643;DHT22;8435;52.184;5.406;2022-09-17T02:32:50;14.20;95.60
16643;DHT22;8435;52.184;5.406;2022-09-17T02:35:24;14.20;95.60
16643;DHT22;8435;52.184;5.406;2022-09-17T02:37:53;14.20;95.60
16643;DHT22;8435;52.184;5.406;2022-09-17T02:40:23;14.20;95.60
16643;DHT22;8435;52.184;5.406;2022-09-17T02:43:05;14.20;95.60
16643;DHT22;8435;52.184;5.406;2022-09-17T02:45:43;14.20;95.60
16643;DHT22;8435;52.184;5.406;2022-09-17T02:51:25;14.10;95.60
16643;DHT22;8435;52.184;5.406;2022-09-17T02:54:04;14.10;95.60
16643;DHT22;8435;52.184;5.406;2022-09-17T02:56:42;14.00;95.70
16643;DHT22;8435;52.184;5.406;2022-09-17T02:59:28;14.00;95.80
16643;DHT22;8435;52.184;5.406;2022-09-17T03:02:02;13.90;95.70
16643;DHT22;8435;52.184;5.406;2022-09-17T03:04:35;13.90;95.70
16643;DHT22;8435;52.184;5.406;2022-09-17T03:07:08;13.90;95.70
16643;DHT22;8435;52.184;5.406;2022-09-17T03:09:39;13.90;95.70
16643;DHT22;8435;52.184;5.406;2022-09-17T03:12:08;13.80;95.70
16643;DHT22;8435;52.184;5.406;2022-09-17T03:14:37;13.80;96.10
16643;DHT22;8435;52.184;5.406;2022-09-17T03:17:04;13.80;95.90
16643;DHT22;8435;52.184;5.406;2022-09-17T03:19:31;13.80;96.00
16643;DHT22;8435;52.184;5.406;2022-09-17T03:21:58;13.70;96.10
16643;DHT22;8435;52.184;5.406;2022-09-17T03:24:27;13.70;96.20
16643;DHT22;8435;52.184;5.406;2022-09-17T03:26:54;13.70;96.30
16643;DHT22;8435;52.184;5.406;2022-09-17T03:29:30;13.70;96.30
16643;DHT22;8435;52.184;5.406;2022-09-17T03:31:59;13.60;96.40
16643;DHT22;8435;52.184;5.406;2022-09-17T03:34:26;13.60;96.40
16643;DHT22;8435;52.184;5.406;2022-09-17T03:36:53;13.60;96.40
16643;DHT22;8435;52.184;5.406;2022-09-17T03:39:20;13.60;96.40
16643;DHT22;8435;52.184;5.406;2022-09-17T03:41:49;13.50;96.40
16643;DHT22;8435;52.184;5.406;2022-09-17T03:44:16;13.50;96.50
16643;DHT22;8435;52.184;5.406;2022-09-17T03:46:44;13.50;96.50
16643;DHT22;8435;52.184;5.406;2022-09-17T03:49:11;13.50;96.60
16643;DHT22;8435;52.184;5.406;2022-09-17T03:51:42;13.50;96.70
16643;DHT22;8435;52.184;5.406;2022-09-17T03:54:10;13.50;96.70
16643;DHT22;8435;52.184;5.406;2022-09-17T03:56:40;13.40;96.70
16643;DHT22;8435;52.184;5.406;2022-09-17T03:59:08;13.40;96.70
16643;DHT22;8435;52.184;5.406;2022-09-17T04:01:35;13.40;96.80
16643;DHT22;8435;52.184;5.406;2022-09-17T04:04:11;13.40;96.80
16643;DHT22;8435;52.184;5.406;2022-09-17T04:06:42;13.30;96.70
16643;DHT22;8435;52.184;5.406;2022-09-17T04:09:09;13.30;96.70
16643;DHT22;8435;52.184;5.406;2022-09-17T04:11:51;13.30;96.70
16643;DHT22;8435;52.184;5.406;2022-09-17T04:14:24;13.30;96.70
16643;DHT22;8435;52.184;5.406;2022-09-17T04:17:05;13.30;96.60
16643;DHT22;8435;52.184;5.406;2022-09-17T04:19:32;13.30;96.60
16643;DHT22;8435;52.184;5.406;2022-09-17T04:22:00;13.40;96.70
16643;DHT22;8435;52.184;5.406;2022-09-17T04:24:27;13.40;96.70
16643;DHT22;8435;52.184;5.406;2022-09-17T04:26:54;13.40;96.70
16643;DHT22;8435;52.184;5.406;2022-09-17T04:29:25;13.40;96.70
16643;DHT22;8435;52.184;5.406;2022-09-17T04:31:52;13.40;96.70
16643;DHT22;8435;52.184;5.406;2022-09-17T04:34:53;13.40;96.60
16643;DHT22;8435;52.184;5.406;2022-09-17T04:37:20;13.40;96.60
16643;DHT22;8435;52.184;5.406;2022-09-17T04:39:48;13.50;96.50
16643;DHT22;8435;52.184;5.406;2022-09-17T04:42:15;13.50;96.50
16643;DHT22;8435;52.184;5.406;2022-09-17T04:44:44;13.50;96.60
16643;DHT22;8435;52.184;5.406;2022-09-17T04:47:17;13.50;96.60
16643;DHT22;8435;52.184;5.406;2022-09-17T04:49:45;13.50;96.60
16643;DHT22;8435;52.184;5.406;2022-09-17T04:52:12;13.50;96.60
16643;DHT22;8435;52.184;5.406;2022-09-17T04:54:39;13.50;96.60
16643;DHT22;8435;52.184;5.406;2022-09-17T04:57:10;13.50;96.60
16643;DHT22;8435;52.184;5.406;2022-09-17T04:59:51;13.50;96.60
16643;DHT22;8435;52.184;5.406;2022-09-17T05:02:18;13.50;96.60
16643;DHT22;8435;52.184;5.406;2022-09-17T05:04:47;13.50;96.60
16643;DHT22;8435;52.184;5.406;2022-09-17T05:07:15;13.50;96.60
16643;DHT22;8435;52.184;5.406;2022-09-17T05:09:46;13.50;96.60
16643;DHT22;8435;52.184;5.406;2022-09-17T05:12:13;13.50;96.60
16643;DHT22;8435;52.184;5.406;2022-09-17T05:14:40;13.40;96.50
16643;DHT22;8435;52.184;5.406;2022-09-17T05:17:08;13.40;96.50
16643;DHT22;8435;52.184;5.406;2022-09-17T05:19:38;13.40;96.50
16643;DHT22;8435;52.184;5.406;2022-09-17T05:22:05;13.40;96.40
16643;DHT22;8435;52.184;5.406;2022-09-17T05:24:32;13.40;96.40
16643;DHT22;8435;52.184;5.406;2022-09-17T05:27:03;13.40;96.40
16643;DHT22;8435;52.184;5.406;2022-09-17T05:29:30;13.30;96.30
16643;DHT22;8435;52.184;5.406;2022-09-17T05:31:57;13.30;96.30
16643;DHT22;8435;52.184;5.406;2022-09-17T05:34:26;13.30;96.30
16643;DHT22;8435;52.184;5.406;2022-09-17T05:36:53;13.30;96.30
16643;DHT22;8435;52.184;5.406;2022-09-17T05:39:21;13.30;96.30
16643;DHT22;8435;52.184;5.406;2022-09-17T05:42:04;13.30;96.40
16643;DHT22;8435;52.184;5.406;2022-09-17T05:44:34;13.30;96.40
16643;DHT22;8435;52.184;5.406;2022-09-17T05:47:01;13.20;96.30
16643;DHT22;8435;52.184;5.406;2022-09-17T05:49:29;13.20;96.40
16643;DHT22;8435;52.184;5.406;2022-09-17T05:51:58;13.20;96.60
16643;DHT22;8435;52.184;5.406;2022-09-17T05:54:28;13.20;96.60
16643;DHT22;8435;52.184;5.406;2022-09-17T05:56:56;13.30;96.70
16643;DHT22;8435;52.184;5.406;2022-09-17T05:59:23;13.30;96.70
16643;DHT22;8435;52.184;5.406;2022-09-17T06:01:55;13.30;96.80
16643;DHT22;8435;52.184;5.406;2022-09-17T06:04:23;13.30;96.80
16643;DHT22;8435;52.184;5.406;2022-09-17T06:06:54;13.30;96.90
16643;DHT22;8435;52.184;5.406;2022-09-17T06:09:21;13.40;96.90
16643;DHT22;8435;52.184;5.406;2022-09-17T06:11:48;13.40;97.00
16643;DHT22;8435;52.184;5.406;2022-09-17T06:14:15;13.40;97.00
16643;DHT22;8435;52.184;5.406;2022-09-17T06:16:42;13.50;97.00
16643;DHT22;8435;52.184;5.406;2022-09-17T06:19:09;13.50;97.10
16643;DHT22;8435;52.184;5.406;2022-09-17T06:21:36;13.60;97.00
16643;DHT22;8435;52.184;5.406;2022-09-17T06:24:08;13.60;97.00
16643;DHT22;8435;52.184;5.406;2022-09-17T06:26:35;13.60;97.00
16643;DHT22;8435;52.184;5.406;2022-09-17T06:29:02;13.70;97.00
16643;DHT22;8435;52.184;5.406;2022-09-17T06:31:31;13.70;97.00
16643;DHT22;8435;52.184;5.406;2022-09-17T06:33:58;13.70;97.10
16643;DHT22;8435;52.184;5.406;2022-09-17T06:36:34;13.80;97.10
16643;DHT22;8435;52.184;5.406;2022-09-17T06:39:01;13.80;97.10
16643;DHT22;8435;52.184;5.406;2022-09-17T06:41:29;13.80;97.00
16643;DHT22;8435;52.184;5.406;2022-09-17T06:43:59;13.90;97.10
16643;DHT22;8435;52.184;5.406;2022-09-17T06:46:36;13.90;97.20
16643;DHT22;8435;52.184;5.406;2022-09-17T06:49:03;14.00;97.30
16643;DHT22;8435;52.184;5.406;2022-09-17T06:51:30;14.10;97.30
16643;DHT22;8435;52.184;5.406;2022-09-17T06:53:57;14.20;97.30
16643;DHT22;8435;52.184;5.406;2022-09-17T06:56:25;14.30;97.20
16643;DHT22;8435;52.184;5.406;2022-09-17T06:58:54;14.30;97.10
16643;DHT22;8435;52.184;5.406;2022-09-17T07:01:27;14.40;97.10
16643;DHT22;8435;52.184;5.406;2022-09-17T07:03:54;14.50;97.00
16643;DHT22;8435;52.184;5.406;2022-09-17T07:06:21;14.60;96.90
16643;DHT22;8435;52.184;5.406;2022-09-17T07:08:48;14.70;96.80
16643;DHT22;8435;52.184;5.406;2022-09-17T07:11:18;14.80;96.70
16643;DHT22;8435;52.184;5.406;2022-09-17T07:13:44;14.80;96.60
16643;DHT22;8435;52.184;5.406;2022-09-17T07:16:13;14.90;96.50
16643;DHT22;8435;52.184;5.406;2022-09-17T07:18:42;15.00;96.50
16643;DHT22;8435;52.184;5.406;2022-09-17T07:21:09;15.00;96.50
16643;DHT22;8435;52.184;5.406;2022-09-17T07:23:39;15.10;96.40
16643;DHT22;8435;52.184;5.406;2022-09-17T07:26:16;15.10;96.40
16643;DHT22;8435;52.184;5.406;2022-09-17T07:28:46;15.20;96.30
16643;DHT22;8435;52.184;5.406;2022-09-17T07:31:15;15.30;96.20
16643;DHT22;8435;52.184;5.406;2022-09-17T07:33:42;15.40;96.30
16643;DHT22;8435;52.184;5.406;2022-09-17T07:36:14;15.50;96.40
16643;DHT22;8435;52.184;5.406;2022-09-17T07:38:45;15.70;96.60
16643;DHT22;8435;52.184;5.406;2022-09-17T07:41:17;16.00;96.70
16643;DHT22;8435;52.184;5.406;2022-09-17T07:44:02;16.40;96.50
16643;DHT22;8435;52.184;5.406;2022-09-17T07:46:53;16.80;96.20
16643;DHT22;8435;52.184;5.406;2022-09-17T07:49:20;17.30;95.60
16643;DHT22;8435;52.184;5.406;2022-09-17T07:51:47;17.60;95.60
16643;DHT22;8435;52.184;5.406;2022-09-17T07:54:14;18.10;95.20
16643;DHT22;8435;52.184;5.406;2022-09-17T07:56:44;18.40;94.30
16643;DHT22;8435;52.184;5.406;2022-09-17T08:02:13;18.80;93.20
16643;DHT22;8435;52.184;5.406;2022-09-17T08:04:50;18.90;92.50
16643;DHT22;8435;52.184;5.406;2022-09-17T08:07:20;18.80;92.50
16643;DHT22;8435;52.184;5.406;2022-09-17T08:09:47;18.70;92.40
16643;DHT22;8435;52.184;5.406;2022-09-17T08:12:14;18.60;92.60
16643;DHT22;8435;52.184;5.406;2022-09-17T08:14:42;18.50;92.20
16643;DHT22;8435;52.184;5.406;2022-09-17T08:17:09;18.40;92.10
16643;DHT22;8435;52.184;5.406;2022-09-17T08:19:38;18.30;92.10
16643;DHT22;8435;52.184;5.406;2022-09-17T08:22:05;18.30;92.10
16643;DHT22;8435;52.184;5.406;2022-09-17T08:24:33;18.20;92.10
16643;DHT22;8435;52.184;5.406;2022-09-17T08:27:00;18.20;92.20
16643;DHT22;8435;52.184;5.406;2022-09-17T08:29:27;17.90;92.30
16643;DHT22;8435;52.184;5.406;2022-09-17T08:31:53;17.80;92.40
16643;DHT22;8435;52.184;5.406;2022-09-17T08:34:21;17.60;92.50
16643;DHT22;8435;52.184;5.406;2022-09-17T08:36:49;17.50;92.90
16643;DHT22;8435;52.184;5.406;2022-09-17T08:39:16;17.40;93.30
16643;DHT22;8435;52.184;5.406;2022-09-17T08:41:49;17.30;93.70
16643;DHT22;8435;52.184;5.406;2022-09-17T08:44:25;17.40;93.90
16643;DHT22;8435;52.184;5.406;2022-09-17T08:46:58;17.50;93.70
16643;DHT22;8435;52.184;5.406;2022-09-17T08:49:31;17.70;93.60
16643;DHT22;8435;52.184;5.406;2022-09-17T08:52:44;17.80;93.80
16643;DHT22;8435;52.184;5.406;2022-09-17T08:55:19;18.10;93.20
16643;DHT22;8435;52.184;5.406;2022-09-17T08:57:54;18.30;93.40
16643;DHT22;8435;52.184;5.406;2022-09-17T09:00:25;18.50;93.00
16643;DHT22;8435;52.184;5.406;2022-09-17T09:03:05;18.70;92.90
16643;DHT22;8435;52.184;5.406;2022-09-17T09:05:41;18.90;91.90
16643;DHT22;8435;52.184;5.406;2022-09-17T09:08:15;19.10;91.80
16643;DHT22;8435;52.184;5.406;2022-09-17T09:10:47;19.20;91.40
16643;DHT22;8435;52.184;5.406;2022-09-17T09:13:16;19.40;91.50
16643;DHT22;8435;52.184;5.406;2022-09-17T09:15:47;19.60;91.20
16643;DHT22;8435;52.184;5.406;2022-09-17T09:18:18;19.70;91.10
16643;DHT22;8435;52.184;5.406;2022-09-17T09:20:51;19.80;91.30
16643;DHT22;8435;52.184;5.406;2022-09-17T09:23:29;19.90;90.70
16643;DHT22;8435;52.184;5.406;2022-09-17T09:26:04;20.10;90.40
16643;DHT22;8435;52.184;5.406;2022-09-17T09:28:51;20.10;90.80
16643;DHT22;8435;52.184;5.406;2022-09-17T09:31:42;20.00;90.20
16643;DHT22;8435;52.184;5.406;2022-09-17T09:34:13;19.90;90.50
16643;DHT22;8435;52.184;5.406;2022-09-17T09:36:41;19.70;90.70
16643;DHT22;8435;52.184;5.406;2022-09-17T09:39:14;19.50;90.70
16643;DHT22;8435;52.184;5.406;2022-09-17T09:41:46;19.40;90.60
16643;DHT22;8435;52.184;5.406;2022-09-17T09:44:16;19.10;91.10
16643;DHT22;8435;52.184;5.406;2022-09-17T09:47:05;18.90;91.30
16643;DHT22;8435;52.184;5.406;2022-09-17T09:49:45;18.60;92.00
16643;DHT22;8435;52.184;5.406;2022-09-17T09:52:26;18.30;91.70
16643;DHT22;8435;52.184;5.406;2022-09-17T09:55:12;18.10;92.40
16643;DHT22;8435;52.184;5.406;2022-09-17T09:57:48;17.90;93.30
16643;DHT22;8435;52.184;5.406;2022-09-17T10:00:27;17.70;93.80
16643;DHT22;8435;52.184;5.406;2022-09-17T10:02:59;17.60;94.60
16643;DHT22;8435;52.184;5.406;2022-09-17T10:05:28;17.50;94.40
16643;DHT22;8435;52.184;5.406;2022-09-17T10:07:55;17.40;93.90
16643;DHT22;8435;52.184;5.406;2022-09-17T10:10:23;17.30;93.90
16643;DHT22;8435;52.184;5.406;2022-09-17T10:13:08;17.20;93.90
16643;DHT22;8435;52.184;5.406;2022-09-17T10:15:39;17.10;94.70
16643;DHT22;8435;52.184;5.406;2022-09-17T10:18:11;17.10;94.40
16643;DHT22;8435;52.184;5.406;2022-09-17T10:20:49;17.00;94.40
16643;DHT22;8435;52.184;5.406;2022-09-17T10:23:17;16.90;94.60
16643;DHT22;8435;52.184;5.406;2022-09-17T10:25:46;17.00;94.70
16643;DHT22;8435;52.184;5.406;2022-09-17T10:28:26;17.00;94.80
16643;DHT22;8435;52.184;5.406;2022-09-17T10:30:58;17.00;95.10
16643;DHT22;8435;52.184;5.406;2022-09-17T10:33:28;17.00;95.00
16643;DHT22;8435;52.184;5.406;2022-09-17T10:36:00;17.10;95.50
16643;DHT22;8435;52.184;5.406;2022-09-17T10:38:31;17.20;95.50
16643;DHT22;8435;52.184;5.406;2022-09-17T10:41:14;17.30;95.40
16643;DHT22;8435;52.184;5.406;2022-09-17T10:43:41;17.40;95.10
16643;DHT22;8435;52.184;5.406;2022-09-17T10:46:13;17.50;95.00
16643;DHT22;8435;52.184;5.406;2022-09-17T10:48:43;17.50;94.90
16643;DHT22;8435;52.184;5.406;2022-09-17T10:51:19;17.60;94.60
16643;DHT22;8435;52.184;5.406;2022-09-17T10:54:02;17.60;94.30
16643;DHT22;8435;52.184;5.406;2022-09-17T10:56:35;17.60;94.00
16643;DHT22;8435;52.184;5.406;2022-09-17T10:59:20;17.70;93.60
16643;DHT22;8435;52.184;5.406;2022-09-17T11:01:57;17.70;93.40
16643;DHT22;8435;52.184;5.406;2022-09-17T11:04:39;17.70;93.50
16643;DHT22;8435;52.184;5.406;2022-09-17T11:07:37;17.80;93.70
16643;DHT22;8435;52.184;5.406;2022-09-17T11:10:12;17.80;93.10
16643;DHT22;8435;52.184;5.406;2022-09-17T11:12:54;17.90;93.20
16643;DHT22;8435;52.184;5.406;2022-09-17T11:15:31;17.90;93.00
16643;DHT22;8435;52.184;5.406;2022-09-17T11:18:21;18.00;93.10
16643;DHT22;8435;52.184;5.406;2022-09-17T11:21:03;18.10;93.10
16643;DHT22;8435;52.184;5.406;2022-09-17T11:23:52;18.30;92.60
16643;DHT22;8435;52.184;5.406;2022-09-17T11:26:29;18.30;92.50
16643;DHT22;8435;52.184;5.406;2022-09-17T11:29:07;18.40;91.60
16643;DHT22;8435;52.184;5.406;2022-09-17T11:31:45;18.50;90.90
16643;DHT22;8435;52.184;5.406;2022-09-17T11:34:23;18.50;90.60
16643;DHT22;8435;52.184;5.406;2022-09-17T11:36:56;18.60;90.20
16643;DHT22;8435;52.184;5.406;2022-09-17T11:39:27;18.60;90.10
16643;DHT22;8435;52.184;5.406;2022-09-17T11:42:01;18.70;90.10
16643;DHT22;8435;52.184;5.406;2022-09-17T11:44:33;18.70;89.30
16643;DHT22;8435;52.184;5.406;2022-09-17T11:47:06;18.80;89.10
16643;DHT22;8435;52.184;5.406;2022-09-17T11:49:38;18.80;88.70
16643;DHT22;8435;52.184;5.406;2022-09-17T11:52:10;18.70;89.10
16643;DHT22;8435;52.184;5.406;2022-09-17T11:54:43;18.70;88.90
16643;DHT22;8435;52.184;5.406;2022-09-17T11:57:15;18.70;88.30
16643;DHT22;8435;52.184;5.406;2022-09-17T11:59:48;18.70;89.10
16643;DHT22;8435;52.184;5.406;2022-09-17T12:02:20;18.70;90.10
16643;DHT22;8435;52.184;5.406;2022-09-17T12:04:54;18.70;90.10
16643;DHT22;8435;52.184;5.406;2022-09-17T12:07:31;18.70;90.00
16643;DHT22;8435;52.184;5.406;2022-09-17T12:10:31;18.70;90.70
16643;DHT22;8435;52.184;5.406;2022-09-17T12:13:05;18.70;91.50
16643;DHT22;8435;52.184;5.406;2022-09-17T12:15:41;18.60;91.00
16643;DHT22;8435;52.184;5.406;2022-09-17T12:18:19;18.50;90.60
16643;DHT22;8435;52.184;5.406;2022-09-17T12:20:50;18.40;90.90
16643;DHT22;8435;52.184;5.406;2022-09-17T12:23:31;18.30;91.30
16643;DHT22;8435;52.184;5.406;2022-09-17T12:26:08;18.20;91.80
16643;DHT22;8435;52.184;5.406;2022-09-17T12:28:45;18.10;92.30
16643;DHT22;8435;52.184;5.406;2022-09-17T12:31:21;18.00;92.10
16643;DHT22;8435;52.184;5.406;2022-09-17T12:33:53;17.90;92.10
16643;DHT22;8435;52.184;5.406;2022-09-17T12:36:34;17.90;91.80
16643;DHT22;8435;52.184;5.406;2022-09-17T12:39:31;17.80;91.90
16643;DHT22;8435;52.184;5.406;2022-09-17T12:42:07;17.70;91.60
16643;DHT22;8435;52.184;5.406;2022-09-17T12:44:53;17.70;91.60
16643;DHT22;8435;52.184;5.406;2022-09-17T12:50:40;17.60;91.70
16643;DHT22;8435;52.184;5.406;2022-09-17T12:53:18;17.60;91.60
16643;DHT22;8435;52.184;5.406;2022-09-17T12:55:57;17.70;91.60
16643;DHT22;8435;52.184;5.406;2022-09-17T13:01:18;17.60;93.20
16643;DHT22;8435;52.184;5.406;2022-09-17T13:03:53;17.30;93.40
16643;DHT22;8435;52.184;5.406;2022-09-17T13:06:47;17.10;93.70
16643;DHT22;8435;52.184;5.406;2022-09-17T13:09:46;16.80;94.50
16643;DHT22;8435;52.184;5.406;2022-09-17T13:12:21;16.50;95.10
16643;DHT22;8435;52.184;5.406;2022-09-17T13:17:54;16.10;96.20
16643;DHT22;8435;52.184;5.406;2022-09-17T13:20:29;16.00;96.50
16643;DHT22;8435;52.184;5.406;2022-09-17T13:22:57;16.00;96.60
16643;DHT22;8435;52.184;5.406;2022-09-17T13:25:25;16.00;96.50
16643;DHT22;8435;52.184;5.406;2022-09-17T13:28:04;15.90;96.50
16643;DHT22;8435;52.184;5.406;2022-09-17T13:30:54;16.00;96.80
16643;DHT22;8435;52.184;5.406;2022-09-17T13:33:57;16.00;96.90
16643;DHT22;8435;52.184;5.406;2022-09-17T13:36:40;16.00;96.80
16643;DHT22;8435;52.184;5.406;2022-09-17T13:39:10;16.00;96.70
16643;DHT22;8435;52.184;5.406;2022-09-17T13:41:40;16.10;96.10
16643;DHT22;8435;52.184;5.406;2022-09-17T13:44:09;16.10;95.50
16643;DHT22;8435;52.184;5.406;2022-09-17T13:46:37;16.10;95.40
16643;DHT22;8435;52.184;5.406;2022-09-17T13:49:12;16.00;95.00
16643;DHT22;8435;52.184;5.406;2022-09-17T13:51:50;15.90;94.90
16643;DHT22;8435;52.184;5.406;2022-09-17T13:54:19;15.80;94.90
16643;DHT22;8435;52.184;5.406;2022-09-17T13:56:50;15.70;95.20
16643;DHT22;8435;52.184;5.406;2022-09-17T13:59:30;15.60;95.10
16643;DHT22;8435;52.184;5.406;2022-09-17T14:02:00;15.60;95.50
16643;DHT22;8435;52.184;5.406;2022-09-17T14:04:49;15.50;95.60
16643;DHT22;8435;52.184;5.406;2022-09-17T14:07:35;15.50;96.10
16643;DHT22;8435;52.184;5.406;2022-09-17T14:10:34;15.50;96.50
16643;DHT22;8435;52.184;5.406;2022-09-17T14:13:27;15.60;96.30
16643;DHT22;8435;52.184;5.406;2022-09-17T14:19:31;15.70;96.50
16643;DHT22;8435;52.184;5.406;2022-09-17T14:22:10;15.70;95.90
16643;DHT22;8435;52.184;5.406;2022-09-17T14:24:46;15.80;96.00
16643;DHT22;8435;52.184;5.406;2022-09-17T14:27:33;15.80;95.50
16643;DHT22;8435;52.184;5.406;2022-09-17T14:30:13;15.90;95.90
16643;DHT22;8435;52.184;5.406;2022-09-17T14:32:45;15.90;95.80
16643;DHT22;8435;52.184;5.406;2022-09-17T14:35:28;16.00;95.70
16643;DHT22;8435;52.184;5.406;2022-09-17T14:37:57;16.00;95.60
16643;DHT22;8435;52.184;5.406;2022-09-17T14:40:27;16.10;95.30
16643;DHT22;8435;52.184;5.406;2022-09-17T14:42:56;16.10;95.00
16643;DHT22;8435;52.184;5.406;2022-09-17T14:45:26;16.20;94.80
16643;DHT22;8435;52.184;5.406;2022-09-17T14:48:25;16.20;94.90
16643;DHT22;8435;52.184;5.406;2022-09-17T14:50:52;16.30;95.00
16643;DHT22;8435;52.184;5.406;2022-09-17T14:53:19;16.30;94.80
16643;DHT22;8435;52.184;5.406;2022-09-17T14:55:51;16.40;94.40
16643;DHT22;8435;52.184;5.406;2022-09-17T14:58:28;16.40;94.20
16643;DHT22;8435;52.184;5.406;2022-09-17T15:00:56;16.50;93.80
16643;DHT22;8435;52.184;5.406;2022-09-17T15:03:26;16.50;94.10
16643;DHT22;8435;52.184;5.406;2022-09-17T15:05:52;16.60;93.90
16643;DHT22;8435;52.184;5.406;2022-09-17T15:08:21;16.60;93.70
16643;DHT22;8435;52.184;5.406;2022-09-17T15:10:51;16.70;93.60
16643;DHT22;8435;52.184;5.406;2022-09-17T15:13:22;16.70;93.40
16643;DHT22;8435;52.184;5.406;2022-09-17T15:16:02;16.90;93.20
16643;DHT22;8435;52.184;5.406;2022-09-17T15:18:37;17.00;92.80
16643;DHT22;8435;52.184;5.406;2022-09-17T15:21:10;17.00;93.30
16643;DHT22;8435;52.184;5.406;2022-09-17T15:23:41;17.10;93.70
16643;DHT22;8435;52.184;5.406;2022-09-17T15:26:10;17.20;93.80
16643;DHT22;8435;52.184;5.406;2022-09-17T15:28:41;17.20;93.80
16643;DHT22;8435;52.184;5.406;2022-09-17T15:31:17;17.30;94.10
16643;DHT22;8435;52.184;5.406;2022-09-17T15:33:44;17.30;93.40
16643;DHT22;8435;52.184;5.406;2022-09-17T15:36:18;17.10;93.10
16643;DHT22;8435;52.184;5.406;2022-09-17T15:38:46;17.00;93.00
16643;DHT22;8435;52.184;5.406;2022-09-17T15:41:30;16.80;93.40
16643;DHT22;8435;52.184;5.406;2022-09-17T15:44:14;16.60;93.20
16643;DHT22;8435;52.184;5.406;2022-09-17T15:46:42;16.50;93.70
16643;DHT22;8435;52.184;5.406;2022-09-17T15:49:30;16.40;93.60
16643;DHT22;8435;52.184;5.406;2022-09-17T15:52:27;16.40;93.80
16643;DHT22;8435;52.184;5.406;2022-09-17T15:54:55;16.30;93.70
16643;DHT22;8435;52.184;5.406;2022-09-17T15:57:25;16.30;93.90
16643;DHT22;8435;52.184;5.406;2022-09-17T15:59:53;16.20;93.90
16643;DHT22;8435;52.184;5.406;2022-09-17T16:02:30;16.20;94.00
16643;DHT22;8435;52.184;5.406;2022-09-17T16:08:20;16.20;94.20
16643;DHT22;8435;52.184;5.406;2022-09-17T16:10:50;16.10;94.10
16643;DHT22;8435;52.184;5.406;2022-09-17T16:13:18;16.20;94.10
16643;DHT22;8435;52.184;5.406;2022-09-17T16:15:45;16.10;94.20
16643;DHT22;8435;52.184;5.406;2022-09-17T16:18:13;16.10;94.00
16643;DHT22;8435;52.184;5.406;2022-09-17T16:20:40;16.10;94.10
16643;DHT22;8435;52.184;5.406;2022-09-17T16:23:07;16.10;94.00
16643;DHT22;8435;52.184;5.406;2022-09-17T16:25:36;16.00;94.20
16643;DHT22;8435;52.184;5.406;2022-09-17T16:28:09;16.10;94.20
16643;DHT22;8435;52.184;5.406;2022-09-17T16:30:40;16.10;94.30
16643;DHT22;8435;52.184;5.406;2022-09-17T16:33:10;16.10;94.20
16643;DHT22;8435;52.184;5.406;2022-09-17T16:35:37;16.20;94.40
16643;DHT22;8435;52.184;5.406;2022-09-17T16:38:05;16.20;94.50
16643;DHT22;8435;52.184;5.406;2022-09-17T16:40:39;16.20;94.20
16643;DHT22;8435;52.184;5.406;2022-09-17T16:43:06;16.20;93.90
16643;DHT22;8435;52.184;5.406;2022-09-17T16:45:33;16.20;93.70
16643;DHT22;8435;52.184;5.406;2022-09-17T16:48:03;16.30;93.30
16643;DHT22;8435;52.184;5.406;2022-09-17T16:50:30;16.30;93.10